Time;durP1;ratioP1;P1;durP2;ratioP2;P2;SDS_P1;SDS_P2;PMS_P1;PMS_P2;Temp;Humidity;BMP_temperature;BMP_pressure;BME280_temperature;BME280_humidity;BME280_pressure;Samples;Min_cycle;Max_cycle;Signal;HPM_P1;HPM_P2
2024/01/17 00:02:15;;;;;;;17.20;2.40;;;-2.40;99.90;;;;;;5055130;28;20220;-79
2024/01/17 00:04:50;;;;;;;0.50;0.50;;;-2.40;99.90;;;;;;5065160;28;20287;-79
2024/01/17 00:07:17;;;;;;;1.75;1.65;;;-2.40;99.90;;;;;;5056849;28;20184;-78
2024/01/17 00:09:43;;;;;;;3.65;3.35;;;-2.40;99.90;;;;;;5051434;28;20226;-79
2024/01/17 00:12:10;;;;;;;0.50;0.50;;;-2.40;99.90;;;;;;5046844;28;20219;-79
2024/01/17 00:14:37;;;;;;;2.42;1.58;;;-2.50;99.90;;;;;;5036320;28;20218;-78
2024/01/17 00:17:04;;;;;;;1.35;0.70;;;-2.50;99.90;;;;;;5035275;28;20199;-79
2024/01/17 00:19:31;;;;;;;0.70;0.70;;;-2.50;99.90;;;;;;5053539;28;20199;-79
2024/01/17 00:21:59;;;;;;;0.55;0.55;;;-2.60;99.90;;;;;;5054330;28;20219;-79
2024/01/17 00:24:26;;;;;;;1.38;0.80;;;-2.50;99.90;;;;;;5046279;28;20205;-80
2024/01/17 00:26:52;;;;;;;1.38;1.33;;;-2.50;99.90;;;;;;5049686;28;20223;-79
2024/01/17 00:29:19;;;;;;;0.88;0.88;;;-2.50;99.90;;;;;;5042749;28;20195;-79
2024/01/17 00:31:46;;;;;;;3.63;0.95;;;-2.60;99.90;;;;;;5046225;28;20191;-79
2024/01/17 00:34:12;;;;;;;2.78;1.45;;;-2.60;99.90;;;;;;5038699;28;20222;-80
2024/01/17 00:36:39;;;;;;;1.17;1.17;;;-2.60;99.90;;;;;;5042478;28;20196;-79
2024/01/17 00:39:08;;;;;;;2.88;2.67;;;-2.60;99.90;;;;;;5042517;28;20206;-79
2024/01/17 00:41:34;;;;;;;1.55;1.40;;;-2.50;99.90;;;;;;5044251;28;20212;-80
2024/01/17 00:44:04;;;;;;;1.80;1.70;;;-2.60;99.90;;;;;;5045521;28;20266;-79
2024/01/17 00:46:31;;;;;;;0.77;0.77;;;-2.60;99.90;;;;;;5045647;28;20226;-80
2024/01/17 00:48:58;;;;;;;2.47;2.35;;;-2.60;99.90;;;;;;5045492;28;20199;-79
2024/01/17 00:51:25;;;;;;;4.00;3.03;;;-2.70;99.90;;;;;;5044465;28;20594;-79
2024/01/17 00:53:53;;;;;;;1.35;1.08;;;-2.70;99.90;;;;;;5033957;28;20215;-79
2024/01/17 00:56:21;;;;;;;2.60;2.38;;;-2.70;99.90;;;;;;5042334;28;20195;-80
2024/01/17 00:58:48;;;;;;;0.93;0.93;;;-2.70;99.90;;;;;;5037801;28;20195;-79
2024/01/17 01:01:14;;;;;;;0.50;0.50;;;-2.70;99.90;;;;;;5046366;28;20222;-79
2024/01/17 01:03:41;;;;;;;1.33;1.33;;;-2.80;99.90;;;;;;5044649;28;20690;-79
2024/01/17 01:06:07;;;;;;;0.50;0.50;;;-2.80;99.90;;;;;;5047583;28;20196;-79
2024/01/17 01:08:34;;;;;;;0.50;0.50;;;-2.80;99.90;;;;;;5042150;28;20199;-80
2024/01/17 01:11:01;;;;;;;2.22;2.05;;;-2.80;99.90;;;;;;5041955;28;20252;-79
2024/01/17 01:13:29;;;;;;;0.60;0.60;;;-2.80;99.90;;;;;;5042389;28;20223;-79
2024/01/17 01:15:56;;;;;;;0.50;0.50;;;-2.90;99.90;;;;;;5053891;28;20199;-79
2024/01/17 01:18:23;;;;;;;4.80;2.30;;;-2.90;99.90;;;;;;5036798;28;20691;-78
2024/01/17 01:20:49;;;;;;;0.60;0.60;;;-2.80;99.90;;;;;;5045214;28;20187;-80
2024/01/17 01:23:16;;;;;;;0.90;0.80;;;-2.80;99.90;;;;;;5046465;28;20215;-79
2024/01/17 01:25:44;;;;;;;1.70;1.60;;;-2.90;99.90;;;;;;5046870;28;20219;-79
2024/01/17 01:28:10;;;;;;;1.55;0.98;;;-2.80;99.90;;;;;;5052746;28;20226;-79
2024/01/17 01:30:38;;;;;;;1.50;1.50;;;-2.90;99.90;;;;;;5047485;28;20222;-79
2024/01/17 01:33:05;;;;;;;0.75;0.75;;;-2.90;99.90;;;;;;5051819;28;20227;-79
2024/01/17 01:35:32;;;;;;;0.93;0.93;;;-2.90;99.90;;;;;;5056604;28;20210;-80
2024/01/17 01:37:59;;;;;;;1.50;1.50;;;-2.90;99.90;;;;;;5046203;28;20583;-78
2024/01/17 01:40:25;;;;;;;1.23;1.13;;;-2.90;99.90;;;;;;5045841;28;20199;-78
2024/01/17 01:42:53;;;;;;;2.08;1.75;;;-2.90;99.90;;;;;;5049831;28;20215;-78
2024/01/17 01:45:19;;;;;;;0.60;0.60;;;-2.90;99.90;;;;;;5048923;28;20190;-79
2024/01/17 01:47:48;;;;;;;1.88;1.17;;;-2.90;99.90;;;;;;5054010;28;20207;-77
2024/01/17 01:50:15;;;;;;;0.77;0.77;;;-3.00;99.90;;;;;;5045977;28;20191;-79
2024/01/17 01:52:44;;;;;;;3.15;2.78;;;-3.00;99.90;;;;;;5046432;28;20219;-78
2024/01/17 01:55:12;;;;;;;0.88;0.88;;;-3.00;99.90;;;;;;5038073;28;20661;-79
2024/01/17 01:57:46;;;;;;;1.10;1.10;;;-3.00;99.90;;;;;;5047927;28;20199;-78
2024/01/17 02:00:14;;;;;;;6.53;1.85;;;-3.00;99.90;;;;;;5050769;28;20562;-79
2024/01/17 02:02:41;;;;;;;1.40;1.30;;;-3.00;99.90;;;;;;5054437;28;20229;-79
2024/01/17 02:05:09;;;;;;;2.58;2.47;;;-3.00;99.90;;;;;;5051916;28;20579;-79
2024/01/17 02:07:38;;;;;;;2.08;1.30;;;-3.00;99.90;;;;;;5047698;28;20215;-79
2024/01/17 02:10:06;;;;;;;0.50;0.50;;;-3.00;99.90;;;;;;5045529;28;20196;-80
2024/01/17 02:12:33;;;;;;;0.50;0.50;;;-3.00;99.90;;;;;;5046426;28;20227;-79
2024/01/17 02:15:00;;;;;;;7.53;3.78;;;-3.00;99.90;;;;;;5053061;28;20200;-78
2024/01/17 02:17:27;;;;;;;31.55;3.60;;;-3.00;99.90;;;;;;5045272;28;20200;-79
2024/01/17 02:19:54;;;;;;;0.75;0.75;;;-3.00;99.90;;;;;;5029804;28;20196;-79
2024/01/17 02:22:22;;;;;;;1.88;1.40;;;-3.00;99.90;;;;;;5053105;28;20330;-78
2024/01/17 02:24:50;;;;;;;2.83;2.38;;;-2.90;99.90;;;;;;5040758;28;20837;-77
2024/01/17 02:27:16;;;;;;;1.10;1.00;;;-2.90;99.90;;;;;;5049206;28;20225;-78
2024/01/17 02:29:45;;;;;;;0.50;0.40;;;-2.90;99.90;;;;;;5048547;28;20204;-79
2024/01/17 02:32:12;;;;;;;0.65;0.65;;;-2.90;99.90;;;;;;5051048;28;20212;-80
2024/01/17 02:34:39;;;;;;;1.02;1.02;;;-2.90;99.90;;;;;;5044662;28;20206;-78
2024/01/17 02:37:10;;;;;;;0.70;0.70;;;-2.90;99.90;;;;;;5044461;28;20222;-77
2024/01/17 02:39:36;;;;;;;6.20;3.42;;;-2.90;99.90;;;;;;5046317;28;20207;-80
2024/01/17 02:42:05;;;;;;;1.02;1.00;;;-2.90;99.90;;;;;;5036399;28;20655;-78
2024/01/17 02:44:32;;;;;;;1.55;1.45;;;-2.90;99.90;;;;;;5036662;28;20203;-80
2024/01/17 02:46:58;;;;;;;0.63;0.63;;;-2.90;99.90;;;;;;5048568;28;20192;-80
2024/01/17 02:49:25;;;;;;;1.55;1.45;;;-2.90;99.90;;;;;;5049126;28;20203;-79
2024/01/17 02:51:52;;;;;;;0.50;0.50;;;-2.90;99.90;;;;;;5047852;28;20217;-80
2024/01/17 02:54:18;;;;;;;1.30;1.20;;;-2.90;99.90;;;;;;5048844;28;20200;-78
2024/01/17 02:56:45;;;;;;;1.98;1.88;;;-2.90;99.90;;;;;;5046070;28;20217;-79
2024/01/17 02:59:14;;;;;;;0.75;0.75;;;-2.90;99.90;;;;;;5042069;28;20211;-79
2024/01/17 03:01:41;;;;;;;2.22;1.35;;;-2.90;99.90;;;;;;5039864;28;20200;-80
2024/01/17 03:04:08;;;;;;;0.50;0.50;;;-2.90;99.90;;;;;;5048091;28;20698;-80
2024/01/17 03:06:34;;;;;;;0.60;0.60;;;-2.90;99.90;;;;;;5056085;28;20206;-80
2024/01/17 03:09:01;;;;;;;3.95;3.10;;;-2.80;99.90;;;;;;5040944;28;20195;-81
2024/01/17 03:11:28;;;;;;;1.05;1.05;;;-2.80;99.90;;;;;;5048413;28;20242;-80
2024/01/17 03:13:55;;;;;;;1.55;1.02;;;-2.80;99.90;;;;;;5048088;28;20215;-80
2024/01/17 03:16:23;;;;;;;1.35;1.35;;;-2.80;99.90;;;;;;5048594;28;20206;-80
2024/01/17 03:18:49;;;;;;;2.50;2.30;;;-2.80;99.90;;;;;;5045173;28;20579;-80
2024/01/17 03:21:16;;;;;;;1.75;0.93;;;-2.80;99.90;;;;;;5042415;28;20209;-80
2024/01/17 03:23:43;;;;;;;0.80;0.80;;;-2.80;99.90;;;;;;5047520;28;20214;-80
2024/01/17 03:26:10;;;;;;;1.20;1.10;;;-2.70;99.90;;;;;;5043237;28;20203;-81
2024/01/17 03:28:37;;;;;;;1.33;1.33;;;-2.70;99.90;;;;;;5044489;28;20200;-80
2024/01/17 03:31:04;;;;;;;1.08;0.93;;;-2.70;99.90;;;;;;5055654;28;20716;-80
2024/01/17 03:33:33;;;;;;;1.35;1.25;;;-2.80;99.90;;;;;;5047629;28;20714;-80
2024/01/17 03:36:00;;;;;;;2.25;1.98;;;-2.70;99.90;;;;;;5052429;28;20638;-80
2024/01/17 03:38:26;;;;;;;0.70;0.70;;;-2.70;99.90;;;;;;5051028;28;20203;-80
2024/01/17 03:40:55;;;;;;;0.50;0.47;;;-2.80;99.90;;;;;;5036862;28;20200;-80
2024/01/17 03:43:22;;;;;;;1.05;1.05;;;-2.80;99.90;;;;;;5044191;28;20216;-81
2024/01/17 03:45:49;;;;;;;1.83;1.73;;;-2.80;99.90;;;;;;5045578;28;20622;-80
2024/01/17 03:48:16;;;;;;;0.50;0.50;;;-2.70;99.90;;;;;;5041485;28;20652;-79
2024/01/17 03:50:44;;;;;;;2.45;2.35;;;-2.70;99.90;;;;;;5052025;28;20199;-80
2024/01/17 03:53:11;;;;;;;0.50;0.50;;;-2.70;99.90;;;;;;5044220;28;20224;-79
2024/01/17 03:55:38;;;;;;;1.85;1.55;;;-2.70;99.90;;;;;;5044234;28;20207;-78
2024/01/17 03:58:04;;;;;;;1.45;1.15;;;-2.70;99.90;;;;;;5036145;28;20674;-81
2024/01/17 04:00:31;;;;;;;0.60;0.60;;;-2.70;99.90;;;;;;5043911;28;20218;-79
2024/01/17 04:02:58;;;;;;;6.28;2.63;;;-2.70;99.90;;;;;;5046413;28;20723;-79
2024/01/17 04:05:24;;;;;;;0.50;0.50;;;-2.70;99.90;;;;;;5048145;28;20195;-79
2024/01/17 04:07:53;;;;;;;1.35;1.25;;;-2.70;99.90;;;;;;5047869;28;20202;-79
2024/01/17 04:10:19;;;;;;;2.92;2.83;;;-2.60;99.90;;;;;;5050296;28;20242;-80
2024/01/17 04:12:46;;;;;;;10.07;3.10;;;-2.60;99.90;;;;;;5044764;28;20311;-80
2024/01/17 04:15:13;;;;;;;9.57;4.43;;;-2.70;99.90;;;;;;5047850;28;20203;-80
2024/01/17 04:17:40;;;;;;;3.35;3.05;;;-2.70;99.90;;;;;;5047936;28;20211;-79
2024/01/17 04:20:08;;;;;;;0.50;0.47;;;-2.70;99.90;;;;;;5040036;28;20199;-80
2024/01/17 04:22:35;;;;;;;5.30;3.90;;;-2.70;99.90;;;;;;5047966;28;20694;-78
2024/01/17 04:25:03;;;;;;;0.60;0.60;;;-2.70;99.90;;;;;;5045988;28;20200;-78
2024/01/17 04:27:31;;;;;;;0.55;0.55;;;-2.70;99.90;;;;;;5052293;28;20205;-80
2024/01/17 04:29:58;;;;;;;2.20;2.00;;;-2.70;99.90;;;;;;5045318;28;20195;-79
2024/01/17 04:32:24;;;;;;;0.57;0.57;;;-2.70;99.90;;;;;;5049546;28;20223;-80
2024/01/17 04:34:51;;;;;;;4.15;2.25;;;-2.70;99.90;;;;;;5054809;28;20209;-77
2024/01/17 04:37:18;;;;;;;1.45;1.15;;;-2.70;99.90;;;;;;5041201;28;20195;-78
2024/01/17 04:39:45;;;;;;;2.05;1.95;;;-2.70;99.90;;;;;;5047593;28;20205;-79
2024/01/17 04:42:13;;;;;;;0.80;0.80;;;-2.70;99.90;;;;;;5043567;28;20560;-79
2024/01/17 04:44:40;;;;;;;0.50;0.40;;;-2.70;99.90;;;;;;5036882;28;20218;-80
2024/01/17 04:47:06;;;;;;;1.55;1.42;;;-2.60;99.90;;;;;;5044716;28;20259;-80
2024/01/17 04:49:33;;;;;;;1.25;0.85;;;-2.60;99.90;;;;;;5051904;28;20225;-80
2024/01/17 04:52:00;;;;;;;2.38;1.88;;;-2.70;99.90;;;;;;5039662;28;20219;-78
2024/01/17 04:54:30;;;;;;;0.70;0.70;;;-2.70;99.90;;;;;;5047839;28;20201;-80
2024/01/17 04:56:57;;;;;;;1.13;1.13;;;-2.70;99.90;;;;;;5045948;28;20650;-79
2024/01/17 04:59:26;;;;;;;0.50;0.50;;;-2.70;99.90;;;;;;5043334;28;20204;-79
2024/01/17 05:01:53;;;;;;;0.65;0.65;;;-2.70;99.90;;;;;;5051329;28;20294;-78
2024/01/17 05:04:19;;;;;;;1.23;1.13;;;-2.70;99.90;;;;;;5040856;28;20670;-79
2024/01/17 05:06:47;;;;;;;14.45;4.25;;;-2.80;99.90;;;;;;5055779;28;20211;-78
2024/01/17 05:09:17;;;;;;;2.53;1.73;;;-2.80;99.90;;;;;;5056261;28;20609;-79
2024/01/17 05:11:44;;;;;;;0.50;0.50;;;-2.70;99.90;;;;;;5046915;28;20245;-79
2024/01/17 05:14:10;;;;;;;0.50;0.50;;;-2.70;99.90;;;;;;5047040;28;20214;-79
2024/01/17 05:16:38;;;;;;;0.50;0.50;;;-2.70;99.90;;;;;;5039799;28;20679;-79
2024/01/17 05:19:05;;;;;;;0.82;0.82;;;-2.80;99.90;;;;;;5046584;28;20214;-78
2024/01/17 05:21:32;;;;;;;1.10;1.10;;;-2.70;99.90;;;;;;5055366;28;20203;-79
2024/01/17 05:23:59;;;;;;;1.63;1.50;;;-2.70;99.90;;;;;;5046903;28;20223;-79
2024/01/17 05:26:26;;;;;;;1.77;1.50;;;-2.70;99.90;;;;;;5046923;28;20207;-78
2024/01/17 05:28:52;;;;;;;0.73;0.73;;;-2.80;99.90;;;;;;5054912;28;20217;-79
2024/01/17 05:31:19;;;;;;;2.13;1.98;;;-2.80;99.90;;;;;;5054547;28;20195;-79
2024/01/17 05:33:47;;;;;;;0.55;0.55;;;-2.80;99.90;;;;;;5046621;28;20218;-80
2024/01/17 05:36:14;;;;;;;0.50;0.50;;;-2.80;99.90;;;;;;5035313;28;20199;-80
2024/01/17 05:38:41;;;;;;;10.93;2.53;;;-2.80;99.90;;;;;;5051212;28;20602;-79
2024/01/17 05:41:08;;;;;;;0.63;0.63;;;-2.80;99.90;;;;;;5046865;28;20459;-78
2024/01/17 05:43:35;;;;;;;1.90;1.80;;;-2.80;99.90;;;;;;5047745;28;20223;-78
2024/01/17 05:46:02;;;;;;;1.70;1.02;;;-2.80;99.90;;;;;;5045694;28;20195;-78
2024/01/17 05:48:29;;;;;;;0.70;0.70;;;-2.80;99.90;;;;;;5044171;28;20671;-79
2024/01/17 05:50:57;;;;;;;1.13;1.02;;;-2.80;99.90;;;;;;5044135;28;20203;-79
2024/01/17 05:53:23;;;;;;;1.13;1.13;;;-2.80;99.90;;;;;;5039792;28;20223;-79
2024/01/17 05:55:52;;;;;;;0.65;0.63;;;-2.80;99.90;;;;;;5047190;28;20214;-77
2024/01/17 05:58:19;;;;;;;0.50;0.50;;;-2.80;99.90;;;;;;5045539;28;20199;-80
2024/01/17 06:00:46;;;;;;;1.50;1.50;;;-2.80;99.90;;;;;;5045563;28;20728;-80
2024/01/17 06:03:13;;;;;;;3.28;3.08;;;-2.80;99.90;;;;;;5036690;28;20293;-80
2024/01/17 06:05:40;;;;;;;1.67;1.30;;;-2.70;99.90;;;;;;5046949;28;20207;-81
2024/01/17 06:08:09;;;;;;;1.30;1.30;;;-2.80;99.90;;;;;;5051327;28;20679;-80
2024/01/17 06:10:37;;;;;;;0.60;0.60;;;-2.70;99.90;;;;;;5048261;28;20238;-80
2024/01/17 06:13:05;;;;;;;14.60;2.78;;;-2.70;99.90;;;;;;5047589;28;20254;-81
2024/01/17 06:15:31;;;;;;;6.40;4.00;;;-2.70;99.90;;;;;;5045025;28;20226;-80
2024/01/17 06:18:00;;;;;;;1.35;1.30;;;-2.70;99.90;;;;;;5053461;28;20195;-79
2024/01/17 06:20:26;;;;;;;7.75;2.80;;;-2.70;99.90;;;;;;5036977;28;20207;-80
2024/01/17 06:22:53;;;;;;;0.50;0.50;;;-2.70;99.90;;;;;;5044903;28;20219;-79
2024/01/17 06:25:21;;;;;;;1.67;1.50;;;-2.70;99.90;;;;;;5049233;28;20206;-80
2024/01/17 06:27:48;;;;;;;0.75;0.75;;;-2.60;99.90;;;;;;5049001;28;20199;-81
2024/01/17 06:30:15;;;;;;;1.67;0.70;;;-2.60;99.90;;;;;;5046594;28;20203;-80
2024/01/17 06:32:42;;;;;;;0.50;0.50;;;-2.60;99.90;;;;;;5046092;28;20234;-80
2024/01/17 06:35:10;;;;;;;4.75;1.73;;;-2.60;99.90;;;;;;5047675;28;20607;-79
2024/01/17 06:37:37;;;;;;;0.85;0.85;;;-2.60;99.90;;;;;;5049242;28;20207;-81
2024/01/17 06:40:04;;;;;;;0.77;0.77;;;-2.50;99.90;;;;;;5048679;28;20195;-81
2024/01/17 06:42:32;;;;;;;0.50;0.40;;;-2.50;99.90;;;;;;5049232;28;20211;-81
2024/01/17 06:44:59;;;;;;;1.70;1.60;;;-2.50;99.90;;;;;;5048813;28;20291;-79
2024/01/17 06:47:26;;;;;;;0.68;0.68;;;-2.60;99.90;;;;;;5045223;28;20200;-81
2024/01/17 06:49:53;;;;;;;0.82;0.82;;;-2.50;99.90;;;;;;5045004;28;20209;-80
2024/01/17 06:52:19;;;;;;;4.63;3.53;;;-2.50;99.90;;;;;;5045546;28;20215;-81
2024/01/17 06:54:46;;;;;;;3.92;3.63;;;-2.50;99.90;;;;;;5045926;28;20687;-81
2024/01/17 06:57:13;;;;;;;3.47;1.75;;;-2.50;99.90;;;;;;5040166;28;20204;-81
2024/01/17 06:59:42;;;;;;;0.60;0.60;;;-2.50;99.90;;;;;;5049674;28;20195;-81
2024/01/17 07:02:09;;;;;;;0.73;0.73;;;-2.50;99.90;;;;;;5040674;28;20216;-81
2024/01/17 07:04:40;;;;;;;4.65;2.95;;;-2.50;99.90;;;;;;5049307;28;20620;-81
2024/01/17 07:07:07;;;;;;;3.50;1.95;;;-2.50;99.90;;;;;;5049212;28;20203;-81
2024/01/17 07:09:34;;;;;;;0.88;0.88;;;-2.40;99.90;;;;;;5044606;28;20214;-81
2024/01/17 07:12:01;;;;;;;2.63;2.42;;;-2.40;99.90;;;;;;5053955;28;20642;-80
2024/01/17 07:14:28;;;;;;;1.35;0.75;;;-2.40;99.90;;;;;;5046443;28;20227;-82
2024/01/17 07:16:57;;;;;;;0.50;0.50;;;-2.40;99.90;;;;;;5046004;28;20574;-80
2024/01/17 07:19:23;;;;;;;1.85;1.75;;;-2.40;99.90;;;;;;5041057;28;20199;-81
2024/01/17 07:21:50;;;;;;;0.50;0.50;;;-2.40;99.90;;;;;;5040612;28;20500;-82
2024/01/17 07:24:17;;;;;;;0.60;0.60;;;-2.40;99.90;;;;;;5045494;28;20201;-82
2024/01/17 07:26:44;;;;;;;0.50;0.50;;;-2.40;99.90;;;;;;5046590;28;20203;-79
2024/01/17 07:29:11;;;;;;;0.50;0.50;;;-2.40;99.90;;;;;;5047253;28;20734;-82
2024/01/17 07:31:38;;;;;;;3.20;2.22;;;-2.40;99.90;;;;;;5056985;28;20269;-81
2024/01/17 07:34:06;;;;;;;0.70;0.70;;;-2.30;99.90;;;;;;5048353;28;20219;-82
2024/01/17 07:36:33;;;;;;;0.50;0.40;;;-2.30;99.90;;;;;;5045613;28;20242;-82
2024/01/17 07:39:00;;;;;;;0.50;0.50;;;-2.30;99.90;;;;;;5046330;28;20249;-81
2024/01/17 07:41:26;;;;;;;0.50;0.50;;;-2.30;99.90;;;;;;5033559;28;20230;-82
2024/01/17 07:43:53;;;;;;;1.90;1.80;;;-2.30;99.90;;;;;;5057642;28;20223;-82
2024/01/17 07:46:21;;;;;;;1.73;1.15;;;-2.20;99.90;;;;;;5057429;28;20203;-82
2024/01/17 07:48:48;;;;;;;2.15;1.35;;;-2.20;99.90;;;;;;5048584;28;20613;-82
2024/01/17 07:51:16;;;;;;;1.65;1.65;;;-2.10;99.90;;;;;;5038946;28;20283;-82
2024/01/17 07:53:42;;;;;;;0.50;0.50;;;-2.10;99.90;;;;;;5037214;28;20571;-82
2024/01/17 07:56:10;;;;;;;2.30;1.95;;;-2.10;99.90;;;;;;5054138;28;20194;-83
2024/01/17 07:58:37;;;;;;;0.50;0.50;;;-2.10;99.90;;;;;;5044516;28;20214;-81
2024/01/17 08:01:05;;;;;;;1.02;0.95;;;-2.10;99.90;;;;;;5036258;28;20639;-81
2024/01/17 08:03:32;;;;;;;9.63;4.10;;;-2.00;99.90;;;;;;5045221;28;20216;-82
2024/01/17 08:05:58;;;;;;;3.72;2.17;;;-2.00;99.90;;;;;;5044492;28;20586;-82
2024/01/17 08:08:26;;;;;;;2.65;1.25;;;-2.10;99.90;;;;;;5040909;28;20195;-80
2024/01/17 08:10:53;;;;;;;4.20;3.80;;;-2.00;99.90;;;;;;5050527;28;20569;-81
2024/01/17 08:13:20;;;;;;;0.50;0.45;;;-2.00;99.90;;;;;;5054968;28;20223;-80
2024/01/17 08:15:47;;;;;;;0.50;0.50;;;-2.00;99.90;;;;;;5058374;28;20199;-81
2024/01/17 08:18:14;;;;;;;3.15;1.45;;;-2.00;99.90;;;;;;5049738;28;20195;-81
2024/01/17 08:20:41;;;;;;;0.50;0.50;;;-2.00;99.90;;;;;;5048159;28;20199;-83
2024/01/17 08:23:08;;;;;;;0.60;0.60;;;-2.00;99.90;;;;;;5056393;28;20221;-82
2024/01/17 08:25:36;;;;;;;0.50;0.50;;;-2.00;99.90;;;;;;5052383;28;20238;-82
2024/01/17 08:28:03;;;;;;;0.50;0.50;;;-1.90;99.90;;;;;;5036748;28;20208;-82
2024/01/17 08:30:30;;;;;;;0.50;0.40;;;-1.90;99.90;;;;;;5044566;28;20202;-80
2024/01/17 08:32:56;;;;;;;2.85;2.65;;;-1.80;99.90;;;;;;5043604;28;20223;-83
2024/01/17 08:35:23;;;;;;;0.50;0.50;;;-1.70;99.90;;;;;;5036602;28;20574;-83
2024/01/17 08:37:50;;;;;;;0.50;0.40;;;-1.60;99.90;;;;;;5044311;28;20203;-82
2024/01/17 08:40:17;;;;;;;0.50;0.40;;;-1.50;99.90;;;;;;5045475;28;20206;-82
2024/01/17 08:42:45;;;;;;;2.85;2.65;;;-1.50;99.90;;;;;;5041267;28;20210;-82
2024/01/17 08:45:14;;;;;;;1.60;1.50;;;-1.40;99.90;;;;;;5047990;28;20204;-82
2024/01/17 08:47:42;;;;;;;1.17;1.00;;;-1.40;99.90;;;;;;5051105;28;20811;-82
2024/01/17 08:50:09;;;;;;;0.65;0.65;;;-1.30;99.90;;;;;;5043931;28;20564;-82
2024/01/17 08:52:36;;;;;;;0.93;0.93;;;-1.40;99.90;;;;;;5039681;28;20219;-82
2024/01/17 08:55:08;;;;;;;0.68;0.68;;;-1.40;99.90;;;;;;5047927;28;20201;-81
2024/01/17 08:57:36;;;;;;;1.30;1.30;;;-1.40;99.90;;;;;;5043773;28;20880;-83
2024/01/17 09:00:06;;;;;;;1.40;1.25;;;-1.40;99.90;;;;;;5052814;28;20204;-80
2024/01/17 09:02:33;;;;;;;0.50;0.50;;;-1.40;99.90;;;;;;5037314;28;20277;-82
2024/01/17 09:05:00;;;;;;;0.50;0.50;;;-1.30;99.90;;;;;;5052427;28;20198;-82
2024/01/17 09:07:27;;;;;;;0.50;0.50;;;-1.20;99.90;;;;;;5056897;28;20333;-82
2024/01/17 09:09:54;;;;;;;0.50;0.50;;;-1.00;99.90;;;;;;5044704;28;20206;-79
2024/01/17 09:12:22;;;;;;;0.60;0.60;;;-0.90;99.90;;;;;;5043521;28;20247;-79
2024/01/17 09:14:50;;;;;;;0.50;0.50;;;-0.70;99.90;;;;;;5055806;28;20222;-82
2024/01/17 09:17:18;;;;;;;1.23;1.23;;;-0.60;99.90;;;;;;5057700;28;20635;-81
2024/01/17 09:19:46;;;;;;;0.50;0.40;;;-0.50;99.90;;;;;;5056469;28;20618;-79
2024/01/17 09:22:13;;;;;;;2.08;1.92;;;-0.40;99.90;;;;;;5047001;28;20219;-83
2024/01/17 09:24:41;;;;;;;0.50;0.50;;;-0.40;99.90;;;;;;5052231;28;20191;-82
2024/01/17 09:27:08;;;;;;;0.50;0.40;;;-0.30;99.90;;;;;;5049227;28;20231;-82
2024/01/17 09:29:35;;;;;;;0.50;0.43;;;-0.30;99.90;;;;;;5035045;28;20206;-82
2024/01/17 09:32:02;;;;;;;2.75;2.45;;;-0.30;99.90;;;;;;5054225;28;20207;-81
2024/01/17 09:34:32;;;;;;;0.98;0.93;;;-0.20;99.90;;;;;;5041475;28;20269;-81
2024/01/17 09:36:59;;;;;;;1.02;0.98;;;-0.10;99.90;;;;;;5049655;28;20199;-82
2024/01/17 09:39:26;;;;;;;0.50;0.43;;;-0.20;99.90;;;;;;5059500;28;20205;-82
2024/01/17 09:41:53;;;;;;;3.17;2.60;;;-0.20;99.90;;;;;;5044662;28;20583;-82
2024/01/17 09:44:20;;;;;;;0.50;0.40;;;-0.10;99.90;;;;;;5039920;28;20203;-82
2024/01/17 09:46:49;;;;;;;4.53;2.78;;;-0.10;99.90;;;;;;5058115;28;20199;-82
2024/01/17 09:49:16;;;;;;;0.52;0.52;;;0.10;99.90;;;;;;5062204;28;20285;-80
2024/01/17 09:51:44;;;;;;;4.28;1.67;;;0.00;99.90;;;;;;5046365;28;20210;-83
2024/01/17 09:54:12;;;;;;;0.50;0.40;;;-0.20;99.90;;;;;;5054624;28;20220;-83
2024/01/17 09:56:40;;;;;;;0.50;0.50;;;-0.30;99.90;;;;;;5047068;28;20191;-82
2024/01/17 09:59:14;;;;;;;1.02;0.93;;;-0.20;99.90;;;;;;5040073;28;20567;-83
2024/01/17 10:01:41;;;;;;;0.50;0.50;;;-0.30;99.90;;;;;;5030559;28;20231;-81
2024/01/17 10:04:10;;;;;;;12.10;2.45;;;-0.20;99.90;;;;;;5047008;28;20214;-82
2024/01/17 10:06:39;;;;;;;0.50;0.40;;;0.00;99.90;;;;;;5038953;28;20206;-82
2024/01/17 10:09:08;;;;;;;0.50;0.50;;;0.10;99.90;;;;;;5047020;28;20204;-82
2024/01/17 10:11:35;;;;;;;1.05;0.95;;;0.10;99.90;;;;;;5046450;28;20200;-82
2024/01/17 10:14:02;;;;;;;0.60;0.60;;;0.20;99.90;;;;;;5045366;28;20214;-82
2024/01/17 10:16:29;;;;;;;0.50;0.50;;;0.30;99.90;;;;;;5048459;28;20211;-83
2024/01/17 10:18:55;;;;;;;0.50;0.50;;;0.30;99.90;;;;;;5037875;28;20246;-81
2024/01/17 10:21:23;;;;;;;0.50;0.40;;;0.40;99.90;;;;;;5045800;28;20203;-82
2024/01/17 10:23:50;;;;;;;2.30;2.20;;;0.40;99.90;;;;;;5046484;28;20227;-82
2024/01/17 10:26:18;;;;;;;0.80;0.60;;;0.40;99.90;;;;;;5054887;28;20195;-81
2024/01/17 10:28:46;;;;;;;1.45;0.52;;;0.40;99.90;;;;;;5054119;28;20223;-82
2024/01/17 10:31:13;;;;;;;0.50;0.50;;;0.50;99.90;;;;;;5054698;28;20207;-83
2024/01/17 10:33:41;;;;;;;0.50;0.40;;;0.60;99.90;;;;;;5042243;28;20214;-81
2024/01/17 10:36:08;;;;;;;0.80;0.80;;;0.60;99.90;;;;;;5051331;28;20196;-82
2024/01/17 10:38:35;;;;;;;0.50;0.50;;;0.70;99.90;;;;;;5045944;28;20204;-82
2024/01/17 10:41:06;;;;;;;1.45;1.17;;;0.70;99.90;;;;;;5046067;28;20699;-82
2024/01/17 10:43:34;;;;;;;0.50;0.50;;;0.60;99.90;;;;;;5045453;28;20222;-80
2024/01/17 10:46:08;;;;;;;1.13;1.02;;;0.60;99.90;;;;;;5052123;28;20202;-82
2024/01/17 10:48:34;;;;;;;1.50;0.80;;;0.60;99.90;;;;;;5047585;28;20204;-82
2024/01/17 10:51:02;;;;;;;0.50;0.50;;;0.60;99.90;;;;;;5046056;28;20192;-81
2024/01/17 10:53:31;;;;;;;0.50;0.40;;;0.50;99.90;;;;;;5065108;28;20238;-80
2024/01/17 10:56:03;;;;;;;0.50;0.50;;;0.50;99.90;;;;;;5063204;28;20253;-79
2024/01/17 10:58:35;;;;;;;0.50;0.40;;;0.40;99.90;;;;;;5051262;28;20203;-79
2024/01/17 11:01:06;;;;;;;0.50;0.40;;;0.50;99.90;;;;;;5063880;28;20575;-80
2024/01/17 11:03:37;;;;;;;0.50;0.40;;;0.50;99.90;;;;;;5067846;28;20506;-80
2024/01/17 11:06:06;;;;;;;0.93;0.93;;;0.40;99.90;;;;;;5064764;28;20757;-80
2024/01/17 11:08:34;;;;;;;0.60;0.60;;;0.50;99.90;;;;;;5060841;28;20203;-80
2024/01/17 11:11:01;;;;;;;0.50;0.50;;;0.40;99.90;;;;;;5063121;28;20219;-81
2024/01/17 11:13:30;;;;;;;0.50;0.50;;;0.40;99.90;;;;;;5055159;28;20225;-82
2024/01/17 11:15:59;;;;;;;0.50;0.40;;;0.50;99.90;;;;;;5052211;28;20199;-79
2024/01/17 11:18:30;;;;;;;0.50;0.40;;;0.60;99.90;;;;;;5056161;28;20203;-80
2024/01/17 11:20:58;;;;;;;0.50;0.40;;;0.70;99.90;;;;;;5037894;28;20203;-82
2024/01/17 11:23:34;;;;;;;0.60;0.60;;;0.80;99.90;;;;;;5046875;28;20223;-82
2024/01/17 11:26:11;;;;;;;2.28;1.25;;;1.00;99.90;;;;;;5044701;28;20195;-82
2024/01/17 11:28:56;;;;;;;5.93;4.07;;;1.00;99.90;;;;;;5045104;28;20222;-82
2024/01/17 11:31:38;;;;;;;1.13;1.13;;;0.90;99.90;;;;;;5045743;28;20290;-82
2024/01/17 11:34:07;;;;;;;0.50;0.45;;;0.60;99.90;;;;;;5042722;28;20567;-81
2024/01/17 11:36:42;;;;;;;0.50;0.50;;;0.60;99.90;;;;;;5039003;28;20200;-82
2024/01/17 11:39:10;;;;;;;0.98;0.88;;;0.70;99.90;;;;;;5057429;28;20199;-82
2024/01/17 11:41:38;;;;;;;9.68;2.80;;;0.80;99.90;;;;;;5046880;28;20257;-82
2024/01/17 11:44:07;;;;;;;0.50;0.40;;;0.80;99.90;;;;;;5036751;28;20216;-83
2024/01/17 11:46:34;;;;;;;0.50;0.40;;;0.80;99.90;;;;;;5037252;28;20200;-83
2024/01/17 11:49:01;;;;;;;0.50;0.40;;;0.80;99.90;;;;;;5037530;28;20287;-82
2024/01/17 11:51:29;;;;;;;0.50;0.50;;;1.00;99.90;;;;;;5054530;28;20300;-83
2024/01/17 11:53:56;;;;;;;0.50;0.47;;;1.10;99.90;;;;;;5048109;28;20704;-82
2024/01/17 11:56:27;;;;;;;0.50;0.40;;;1.20;99.90;;;;;;5049221;28;20210;-82
2024/01/17 11:58:59;;;;;;;0.68;0.68;;;1.20;99.90;;;;;;5034063;28;20198;-83
2024/01/17 12:01:40;;;;;;;0.60;0.60;;;1.20;99.90;;;;;;5048270;28;20209;-82
2024/01/17 12:04:11;;;;;;;1.00;0.80;;;1.30;99.90;;;;;;5057148;28;20211;-82
2024/01/17 12:06:40;;;;;;;2.08;1.35;;;1.30;99.90;;;;;;5055136;28;20253;-81
2024/01/17 12:09:15;;;;;;;1.42;1.23;;;1.20;99.90;;;;;;5045452;28;20223;-82
2024/01/17 12:11:42;;;;;;;1.35;1.25;;;1.10;99.90;;;;;;5048145;28;20566;-82
2024/01/17 12:14:09;;;;;;;0.93;0.93;;;1.00;99.90;;;;;;5056873;28;20219;-81
2024/01/17 12:16:35;;;;;;;1.75;1.65;;;1.00;99.90;;;;;;5039802;28;20671;-82
2024/01/17 12:19:02;;;;;;;0.75;0.75;;;1.00;99.90;;;;;;5051073;28;20568;-80
2024/01/17 12:21:31;;;;;;;0.70;0.70;;;1.00;99.90;;;;;;5036232;28;20210;-82
2024/01/17 12:23:59;;;;;;;2.35;1.50;;;0.90;99.90;;;;;;5048964;28;20207;-82
2024/01/17 12:26:25;;;;;;;1.80;1.52;;;0.90;99.90;;;;;;5055980;28;20205;-82
2024/01/17 12:29:06;;;;;;;1.98;1.88;;;0.90;99.90;;;;;;5028587;28;20202;-82
2024/01/17 12:31:33;;;;;;;0.77;0.77;;;0.90;99.90;;;;;;5054188;28;20198;-82
2024/01/17 12:34:00;;;;;;;0.95;0.95;;;1.00;99.90;;;;;;5056845;28;20314;-81
2024/01/17 12:36:26;;;;;;;0.60;0.60;;;0.80;99.90;;;;;;5048219;28;20207;-83
2024/01/17 12:38:53;;;;;;;1.25;1.25;;;0.90;99.90;;;;;;5031341;28;20192;-82
2024/01/17 12:41:21;;;;;;;0.50;0.40;;;0.80;99.90;;;;;;5040924;28;20278;-81
2024/01/17 12:43:49;;;;;;;0.60;0.60;;;0.80;99.90;;;;;;5035986;28;20223;-83
2024/01/17 12:46:16;;;;;;;0.50;0.50;;;0.80;99.90;;;;;;5043005;28;20256;-83
2024/01/17 12:48:55;;;;;;;0.52;0.52;;;0.60;99.90;;;;;;5045600;28;20204;-83
2024/01/17 12:51:22;;;;;;;0.70;0.70;;;0.70;99.90;;;;;;5043477;28;20293;-81